createdAt,value
2022-12-11T00:00:55.252Z,12.13
2022-12-11T00:03:41.668Z,11.40
2022-12-11T00:06:10.675Z,14.52
2022-12-11T00:08:38.438Z,13.15
2022-12-11T00:11:08.270Z,16.00
2022-12-11T00:13:35.676Z,14.82
2022-12-11T00:16:02.561Z,16.48
2022-12-11T00:18:29.591Z,11.75
2022-12-11T00:21:01.481Z,15.43
2022-12-11T00:23:28.822Z,10.57
2022-12-11T00:25:55.560Z,15.02
2022-12-11T00:28:22.623Z,15.88
2022-12-11T00:30:50.028Z,17.48
2022-12-11T00:33:17.564Z,16.17
2022-12-11T00:35:47.044Z,15.88
2022-12-11T00:38:16.843Z,17.10
2022-12-11T00:40:44.266Z,17.50
2022-12-11T00:43:11.685Z,17.73
2022-12-11T00:45:41.094Z,17.80
2022-12-11T00:48:09.040Z,16.55
2022-12-11T00:50:36.431Z,13.98
2022-12-11T00:53:05.077Z,12.23
2022-12-11T00:55:36.071Z,14.68
2022-12-11T00:58:03.203Z,14.63
2022-12-11T01:00:29.973Z,14.00
2022-12-11T01:02:57.136Z,17.27
2022-12-11T01:05:23.929Z,16.90
2022-12-11T01:07:51.072Z,17.55
2022-12-11T01:10:26.964Z,23.13
2022-12-11T01:12:57.281Z,12.13
2022-12-11T01:15:29.144Z,12.18
2022-12-11T01:17:56.881Z,17.02
2022-12-11T01:20:25.403Z,16.50
2022-12-11T01:22:54.966Z,18.20
2022-12-11T01:25:22.355Z,10.75
2022-12-11T01:27:53.660Z,13.27
2022-12-11T01:30:22.491Z,15.48
2022-12-11T01:32:49.927Z,17.20
2022-12-11T01:35:17.712Z,14.48
2022-12-11T01:37:45.743Z,14.15
2022-12-11T01:40:15.941Z,13.30
2022-12-11T01:42:43.043Z,11.45
2022-12-11T01:45:40.365Z,11.55
2022-12-11T01:48:17.734Z,15.43
2022-12-11T01:50:54.673Z,13.98
2022-12-11T01:53:29.810Z,13.23
2022-12-11T01:55:58.751Z,12.02
2022-12-11T01:58:33.499Z,12.32
2022-12-11T02:01:02.643Z,16.52
2022-12-11T02:03:29.670Z,12.23
2022-12-11T02:06:00.399Z,11.63
2022-12-11T02:08:27.490Z,17.05
2022-12-11T02:10:54.247Z,12.18
2022-12-11T02:13:51.245Z,10.07
2022-12-11T02:16:21.021Z,12.27
2022-12-11T02:19:02.917Z,8.43
2022-12-11T02:21:41.159Z,11.57
2022-12-11T02:24:32.290Z,9.18
2022-12-11T02:26:58.991Z,10.63
2022-12-11T02:30:08.633Z,12.05
2022-12-11T02:32:41.082Z,9.32
2022-12-11T02:35:15.291Z,9.80
2022-12-11T02:37:45.093Z,11.50
2022-12-11T02:40:16.922Z,10.20
2022-12-11T02:42:47.596Z,10.13
2022-12-11T02:45:16.770Z,8.07
2022-12-11T02:47:46.182Z,6.88
2022-12-11T02:50:18.173Z,8.73
2022-12-11T02:52:48.302Z,7.22
2022-12-11T02:55:16.750Z,9.52
2022-12-11T02:57:56.501Z,7.50
2022-12-11T03:00:23.631Z,11.80
2022-12-11T03:02:50.379Z,7.43
2022-12-11T03:05:17.572Z,7.68
2022-12-11T03:07:45.126Z,7.72
2022-12-11T03:10:15.123Z,9.02
2022-12-11T03:12:46.971Z,6.40
2022-12-11T03:15:19.985Z,7.15
2022-12-11T03:18:05.375Z,6.43
2022-12-11T03:20:35.662Z,4.85
2022-12-11T03:23:29.697Z,7.38
2022-12-11T03:26:01.311Z,5.22
2022-12-11T03:28:48.952Z,6.10
2022-12-11T03:31:26.266Z,5.75
2022-12-11T03:33:56.358Z,4.95
2022-12-11T03:36:33.502Z,5.03
2022-12-11T03:39:07.789Z,5.82
2022-12-11T03:41:37.574Z,5.47
2022-12-11T03:44:04.510Z,5.15
2022-12-11T03:46:36.690Z,3.90
2022-12-11T03:49:11.963Z,3.67
2022-12-11T03:51:40.442Z,4.15
2022-12-11T03:54:07.567Z,4.97
2022-12-11T03:56:38.386Z,4.35
2022-12-11T03:59:05.175Z,5.80
2022-12-11T04:01:32.265Z,3.63
2022-12-11T04:04:01.771Z,6.18
2022-12-11T04:06:28.810Z,3.75
2022-12-11T04:08:55.515Z,3.50
2022-12-11T04:11:34.569Z,4.78
2022-12-11T04:14:32.200Z,2.30
2022-12-11T04:17:00.663Z,3.97
2022-12-11T04:19:46.232Z,4.90
2022-12-11T04:22:33.839Z,5.65
2022-12-11T04:25:01.686Z,2.25
2022-12-11T04:27:47.600Z,4.55
2022-12-11T04:30:20.466Z,3.22
2022-12-11T04:32:47.767Z,3.63
2022-12-11T04:35:15.173Z,5.30
2022-12-11T04:37:42.486Z,5.47
2022-12-11T04:40:12.879Z,4.97
2022-12-11T04:42:40.286Z,2.25
2022-12-11T04:45:13.125Z,5.07
2022-12-11T04:47:41.230Z,6.65
2022-12-11T04:50:10.543Z,5.38
2022-12-11T04:52:37.629Z,6.78
2022-12-11T04:55:06.358Z,6.65
2022-12-11T04:57:33.468Z,9.93
2022-12-11T05:00:00.416Z,7.05
2022-12-11T05:02:27.726Z,7.20
2022-12-11T05:04:54.573Z,9.73
2022-12-11T05:07:21.611Z,7.40
2022-12-11T05:09:48.493Z,9.48
2022-12-11T05:12:15.530Z,7.95
2022-12-11T05:14:45.157Z,7.53
2022-12-11T05:17:12.228Z,7.78
2022-12-11T05:19:38.976Z,7.55
2022-12-11T05:22:05.986Z,10.18
2022-12-11T05:24:32.737Z,9.88
2022-12-11T05:26:59.755Z,6.20
2022-12-11T05:29:26.589Z,6.20
2022-12-11T05:31:53.635Z,9.75
2022-12-11T05:34:20.451Z,13.55
2022-12-11T05:36:47.515Z,10.00
2022-12-11T05:39:14.288Z,5.57
2022-12-11T05:41:41.371Z,6.18
2022-12-11T05:44:12.279Z,9.48
2022-12-11T05:46:40.010Z,7.75
2022-12-11T05:49:06.902Z,7.93
2022-12-11T05:51:34.801Z,9.68
2022-12-11T05:54:02.334Z,8.35
2022-12-11T05:56:32.935Z,7.20
2022-12-11T05:59:01.322Z,6.93
2022-12-11T06:01:43.082Z,5.85
2022-12-11T06:04:11.930Z,7.35
2022-12-11T06:06:40.401Z,6.70
2022-12-11T06:09:07.625Z,5.88
2022-12-11T06:11:35.869Z,7.45
2022-12-11T06:14:03.865Z,9.07
2022-12-11T06:16:31.364Z,7.85
2022-12-11T06:18:58.823Z,6.47
2022-12-11T06:21:29.442Z,6.80
2022-12-11T06:23:58.015Z,6.65
2022-12-11T06:26:26.647Z,7.90
2022-12-11T06:28:53.506Z,4.03
2022-12-11T06:31:20.735Z,5.80
2022-12-11T06:33:47.615Z,7.10
2022-12-11T06:36:17.670Z,9.73
2022-12-11T06:38:45.163Z,4.53
2022-12-11T06:41:12.914Z,6.55
2022-12-11T06:43:40.945Z,8.43
2022-12-11T06:46:10.515Z,6.88
2022-12-11T06:48:37.592Z,5.70
2022-12-11T06:51:13.600Z,7.13
2022-12-11T06:53:41.078Z,9.65
2022-12-11T06:56:12.179Z,8.95
2022-12-11T06:58:41.045Z,11.02
2022-12-11T07:01:22.826Z,8.82
2022-12-11T07:03:49.909Z,5.18
2022-12-11T07:06:17.036Z,8.10
2022-12-11T07:08:44.229Z,8.52
2022-12-11T07:11:13.932Z,7.63
2022-12-11T07:13:44.313Z,11.02
2022-12-11T07:16:12.816Z,7.57
2022-12-11T07:18:46.676Z,10.65
2022-12-11T07:21:14.332Z,9.27
2022-12-11T07:23:41.412Z,8.95
2022-12-11T07:26:11.685Z,7.22
2022-12-11T07:28:38.878Z,11.68
2022-12-11T07:31:07.799Z,7.70
2022-12-11T07:33:34.985Z,10.55
2022-12-11T07:36:04.843Z,11.50
2022-12-11T07:38:31.946Z,9.10
2022-12-11T07:41:07.382Z,9.13
2022-12-11T07:43:35.374Z,8.77
2022-12-11T07:46:09.267Z,10.40
2022-12-11T07:48:39.348Z,7.20
2022-12-11T07:51:09.583Z,8.60
2022-12-11T07:53:36.411Z,6.95
2022-12-11T07:56:04.056Z,5.60
2022-12-11T07:58:31.035Z,5.03
2022-12-11T08:00:58.342Z,11.05
2022-12-11T08:03:25.374Z,6.05
2022-12-11T08:05:53.473Z,6.90
2022-12-11T08:08:20.470Z,9.15
2022-12-11T08:10:47.546Z,8.02
2022-12-11T08:13:14.494Z,11.93
2022-12-11T08:15:41.764Z,7.43
2022-12-11T08:18:08.513Z,5.47
2022-12-11T08:20:38.159Z,7.45
2022-12-11T08:23:05.236Z,9.75
2022-12-11T08:25:32.278Z,9.15
2022-12-11T08:27:59.010Z,6.63
2022-12-11T08:30:26.007Z,7.85
2022-12-11T08:32:52.923Z,8.18
2022-12-11T08:35:20.026Z,8.88
2022-12-11T08:37:46.816Z,7.32
2022-12-11T08:40:14.219Z,5.80
2022-12-11T08:42:41.182Z,7.97
2022-12-11T08:45:08.941Z,7.38
2022-12-11T08:47:36.702Z,4.88
2022-12-11T08:50:04.262Z,5.70
2022-12-11T08:52:31.550Z,5.07
2022-12-11T08:54:58.587Z,6.75
2022-12-11T08:57:25.362Z,7.80
2022-12-11T08:59:52.378Z,5.63
2022-12-11T09:02:19.155Z,5.07
2022-12-11T09:04:46.352Z,6.72
2022-12-11T09:07:13.085Z,5.32
2022-12-11T09:09:40.123Z,5.95
2022-12-11T09:12:06.935Z,4.85
2022-12-11T09:14:34.192Z,8.20
2022-12-11T09:17:00.966Z,4.90
2022-12-11T09:19:32.201Z,4.13
2022-12-11T09:21:59.398Z,7.93
2022-12-11T09:24:26.384Z,5.38
2022-12-11T09:26:54.605Z,5.25
2022-12-11T09:29:21.677Z,7.75
2022-12-11T09:31:49.549Z,5.80
2022-12-11T09:34:16.605Z,5.75
2022-12-11T09:36:44.271Z,9.73
2022-12-11T09:39:13.590Z,6.53
2022-12-11T09:41:55.633Z,5.63
2022-12-11T09:44:51.102Z,5.55
2022-12-11T09:47:42.890Z,6.57
2022-12-11T09:50:10.048Z,5.75
2022-12-11T09:52:40.465Z,4.47
2022-12-11T09:55:16.776Z,6.55
2022-12-11T09:58:02.379Z,7.68
2022-12-11T10:00:38.501Z,6.97
2022-12-11T10:03:43.006Z,5.07
2022-12-11T10:06:28.315Z,6.05
2022-12-11T10:09:18.105Z,4.75
2022-12-11T10:11:53.001Z,5.53
2022-12-11T10:14:59.837Z,6.10
2022-12-11T10:17:34.353Z,4.53
2022-12-11T10:20:36.533Z,4.78
2022-12-11T10:23:07.397Z,3.67
2022-12-11T10:25:40.087Z,6.00
2022-12-11T10:28:21.266Z,4.07
2022-12-11T10:30:49.659Z,3.95
2022-12-11T10:33:50.049Z,4.47
2022-12-11T10:36:25.694Z,3.25
2022-12-11T10:38:52.720Z,6.18
2022-12-11T10:41:41.878Z,4.05
2022-12-11T10:44:23.918Z,4.40
2022-12-11T10:47:14.042Z,4.70
2022-12-11T10:49:59.628Z,5.00
2022-12-11T10:52:38.158Z,6.80
2022-12-11T10:55:20.806Z,4.60
2022-12-11T10:57:57.104Z,5.18
2022-12-11T11:00:33.020Z,2.92
2022-12-11T11:03:01.482Z,5.57
2022-12-11T11:05:34.905Z,5.43
2022-12-11T11:08:22.745Z,5.60
2022-12-11T11:10:57.958Z,7.35
2022-12-11T11:13:27.679Z,5.25
2022-12-11T11:16:11.806Z,7.07
2022-12-11T11:18:41.160Z,4.90
2022-12-11T11:21:16.949Z,6.45
2022-12-11T11:23:47.289Z,6.20
2022-12-11T11:26:18.488Z,4.90
2022-12-11T11:28:55.752Z,5.32
2022-12-11T11:31:35.561Z,7.32
2022-12-11T11:34:06.817Z,5.13
2022-12-11T11:36:37.808Z,7.18
2022-12-11T11:39:34.139Z,6.60
2022-12-11T11:42:47.464Z,8.80
2022-12-11T11:45:30.491Z,5.60
2022-12-11T11:48:24.508Z,3.97
2022-12-11T11:50:53.874Z,6.88
2022-12-11T11:53:37.452Z,4.18
2022-12-11T11:56:25.656Z,6.15
2022-12-11T11:59:11.482Z,4.65
2022-12-11T12:01:40.927Z,5.53
2022-12-11T12:04:08.342Z,5.55
2022-12-11T12:06:57.287Z,8.43
2022-12-11T12:09:42.439Z,5.10
2022-12-11T12:12:45.415Z,7.47
2022-12-11T12:15:38.409Z,13.25
2022-12-11T12:18:21.346Z,9.23
2022-12-11T12:21:09.404Z,6.17
2022-12-11T12:23:59.034Z,6.18
2022-12-11T12:26:34.067Z,9.85
2022-12-11T12:29:27.959Z,6.25
2022-12-11T12:31:55.411Z,7.47
2022-12-11T12:34:31.534Z,5.50
2022-12-11T12:37:47.926Z,6.65
2022-12-11T12:40:17.651Z,7.55
2022-12-11T12:42:58.040Z,4.75
2022-12-11T12:45:57.398Z,5.88
2022-12-11T12:48:26.144Z,5.50
2022-12-11T12:50:53.401Z,7.10
2022-12-11T12:53:25.863Z,3.92
2022-12-11T12:55:55.538Z,5.10
2022-12-11T12:58:41.010Z,6.15
2022-12-11T13:01:21.140Z,7.32
2022-12-11T13:03:56.189Z,7.07
2022-12-11T13:06:38.170Z,5.88
2022-12-11T13:09:17.446Z,5.82
2022-12-11T13:11:45.811Z,6.55
2022-12-11T13:14:15.715Z,4.53
2022-12-11T13:16:45.643Z,5.20
2022-12-11T13:19:27.807Z,5.45
2022-12-11T13:22:06.403Z,9.10
2022-12-11T13:24:34.303Z,6.82
2022-12-11T13:27:22.085Z,5.90
2022-12-11T13:29:49.324Z,8.52
2022-12-11T13:32:18.809Z,6.93
2022-12-11T13:35:05.669Z,5.90
2022-12-11T13:37:41.510Z,9.65
2022-12-11T13:40:40.083Z,5.20
2022-12-11T13:43:25.736Z,6.45
2022-12-11T13:45:56.593Z,10.40
2022-12-11T13:48:29.001Z,8.40
2022-12-11T13:50:57.425Z,7.50
2022-12-11T13:53:24.265Z,7.65
2022-12-11T13:56:03.968Z,9.98
2022-12-11T13:58:35.113Z,8.80
2022-12-11T14:01:07.973Z,10.30
2022-12-11T14:03:35.756Z,9.50
2022-12-11T14:06:04.146Z,9.25
2022-12-11T14:08:40.245Z,8.20
2022-12-11T14:11:10.414Z,9.77
2022-12-11T14:13:41.894Z,8.57
2022-12-11T14:16:08.928Z,9.02
2022-12-11T14:18:37.011Z,6.55
2022-12-11T14:21:06.459Z,9.48
2022-12-11T14:23:35.131Z,9.48
2022-12-11T14:26:04.106Z,8.50
2022-12-11T14:28:38.027Z,9.70
2022-12-11T14:31:06.550Z,9.02
2022-12-11T14:33:38.131Z,11.38
2022-12-11T14:36:06.623Z,11.35
2022-12-11T14:38:35.541Z,8.48
2022-12-11T14:41:16.589Z,8.43
2022-12-11T14:43:48.017Z,13.57
2022-12-11T14:46:36.807Z,9.88
2022-12-11T14:49:17.949Z,7.15
2022-12-11T14:51:45.710Z,11.57
2022-12-11T14:54:31.583Z,9.65
2022-12-11T14:57:00.848Z,6.13
2022-12-11T14:59:32.162Z,7.50
2022-12-11T15:02:30.459Z,10.40
2022-12-11T15:05:19.560Z,13.75
2022-12-11T15:08:00.273Z,5.97
2022-12-11T15:10:55.743Z,11.98
2022-12-11T15:13:24.098Z,9.73
2022-12-11T15:15:51.412Z,7.15
2022-12-11T15:18:25.039Z,14.50
2022-12-11T15:20:58.244Z,8.23
2022-12-11T15:23:27.743Z,9.40
2022-12-11T15:26:02.837Z,7.85
2022-12-11T15:28:38.191Z,10.68
2022-12-11T15:31:22.350Z,10.85
2022-12-11T15:33:49.383Z,12.05
2022-12-11T15:36:25.143Z,14.15
2022-12-11T15:38:55.430Z,13.02
2022-12-11T15:41:26.070Z,9.60
2022-12-11T15:43:59.205Z,9.52
2022-12-11T15:46:28.850Z,10.98
2022-12-11T15:48:57.625Z,14.65
2022-12-11T15:51:27.674Z,13.25
2022-12-11T15:53:57.735Z,10.15
2022-12-11T15:56:24.567Z,11.60
2022-12-11T15:58:54.394Z,7.82
2022-12-11T16:01:23.095Z,14.10
2022-12-11T16:03:50.492Z,10.30
2022-12-11T16:06:20.700Z,10.15
2022-12-11T16:08:47.758Z,11.38
2022-12-11T16:11:14.817Z,9.75
2022-12-11T16:13:43.199Z,11.15
2022-12-11T16:16:10.247Z,10.80
2022-12-11T16:18:37.280Z,9.07
2022-12-11T16:21:06.057Z,9.15
2022-12-11T16:23:33.076Z,12.60
2022-12-11T16:26:08.170Z,12.23
2022-12-11T16:28:37.143Z,10.65
2022-12-11T16:31:14.964Z,8.82
2022-12-11T16:33:42.058Z,12.02
2022-12-11T16:36:16.972Z,11.52
2022-12-11T16:38:53.766Z,11.77
2022-12-11T16:41:24.838Z,10.10
2022-12-11T16:43:54.411Z,11.50
2022-12-11T16:46:25.223Z,8.88
2022-12-11T16:48:52.274Z,11.32
2022-12-11T16:51:19.064Z,10.02
2022-12-11T16:53:48.725Z,10.63
2022-12-11T16:56:24.018Z,12.27
2022-12-11T16:58:51.039Z,15.32
2022-12-11T17:01:17.833Z,8.00
2022-12-11T17:03:45.166Z,8.50
2022-12-11T17:06:14.541Z,8.68
2022-12-11T17:08:42.787Z,11.50
2022-12-11T17:11:13.312Z,11.85
2022-12-11T17:13:40.399Z,12.75
2022-12-11T17:16:09.598Z,10.57
2022-12-11T17:18:37.031Z,8.10
2022-12-11T17:21:08.747Z,12.77
2022-12-11T17:23:35.968Z,9.25
2022-12-11T17:26:03.423Z,10.35
2022-12-11T17:28:31.702Z,12.13
2022-12-11T17:30:58.649Z,8.88
2022-12-11T17:33:25.734Z,6.43
2022-12-11T17:35:52.485Z,8.25
2022-12-11T17:38:19.533Z,11.20
2022-12-11T17:40:49.478Z,8.50
2022-12-11T17:43:16.646Z,13.48
2022-12-11T17:45:48.870Z,7.78
2022-12-11T17:48:16.211Z,9.05
2022-12-11T17:50:44.875Z,10.98
2022-12-11T17:53:13.386Z,9.30
2022-12-11T17:55:44.694Z,8.75
2022-12-11T17:58:17.360Z,8.98
2022-12-11T18:00:45.950Z,10.55
2022-12-11T18:03:13.865Z,11.63
2022-12-11T18:05:42.756Z,7.97
2022-12-11T18:08:13.962Z,10.07
2022-12-11T18:10:41.535Z,9.98
2022-12-11T18:13:08.694Z,11.65
2022-12-11T18:15:35.835Z,10.05
2022-12-11T18:18:03.790Z,7.63
2022-12-11T18:20:32.246Z,8.43
2022-12-11T18:23:00.424Z,11.70
2022-12-11T18:25:28.033Z,10.57
2022-12-11T18:27:55.452Z,8.90
2022-12-11T18:30:25.013Z,9.60
2022-12-11T18:32:52.419Z,9.30
2022-12-11T18:35:19.599Z,11.20
2022-12-11T18:37:46.798Z,8.50
2022-12-11T18:40:13.554Z,9.77
2022-12-11T18:42:40.579Z,11.18
2022-12-11T18:45:08.019Z,11.18
2022-12-11T18:47:35.084Z,12.35
2022-12-11T18:50:07.420Z,11.50
2022-12-11T18:52:35.289Z,10.50
2022-12-11T18:55:02.378Z,8.10
2022-12-11T18:57:29.468Z,8.27
2022-12-11T18:59:56.317Z,14.73
2022-12-11T19:02:23.594Z,11.80
2022-12-11T19:04:50.400Z,12.05
2022-12-11T19:07:17.433Z,10.63
2022-12-11T19:09:48.135Z,11.95
2022-12-11T19:12:15.750Z,10.00
2022-12-11T19:14:42.528Z,13.63
2022-12-11T19:17:09.641Z,12.45
2022-12-11T19:19:36.391Z,7.53
2022-12-11T19:22:04.223Z,14.93
2022-12-11T19:24:31.257Z,9.68
2022-12-11T19:26:58.332Z,16.30
2022-12-11T19:29:27.648Z,15.27
2022-12-11T19:31:55.719Z,11.77
2022-12-11T19:34:23.005Z,13.10
2022-12-11T19:36:50.431Z,11.93
2022-12-11T19:39:17.889Z,14.35
2022-12-11T19:41:45.400Z,11.50
2022-12-11T19:44:12.482Z,18.20
2022-12-11T19:46:40.254Z,13.65
2022-12-11T19:49:07.113Z,12.20
2022-12-11T19:51:40.148Z,13.73
2022-12-11T19:54:08.855Z,15.00
2022-12-11T19:56:36.243Z,12.48
2022-12-11T19:59:05.969Z,13.25
2022-12-11T20:01:35.834Z,14.25
2022-12-11T20:04:10.198Z,12.45
2022-12-11T20:06:40.006Z,12.30
2022-12-11T20:09:11.016Z,16.60
2022-12-11T20:11:39.978Z,16.58
2022-12-11T20:14:07.058Z,10.10
2022-12-11T20:17:08.641Z,16.23
2022-12-11T20:19:20.926Z,17.50
2022-12-11T20:21:48.144Z,15.88
2022-12-11T20:24:14.897Z,16.98
2022-12-11T20:26:41.922Z,14.77
2022-12-11T20:29:08.833Z,17.25
2022-12-11T20:31:36.897Z,16.15
2022-12-11T20:34:04.858Z,18.77
2022-12-11T20:36:34.649Z,12.77
2022-12-11T20:39:01.511Z,22.05
2022-12-11T20:41:29.426Z,21.63
2022-12-11T20:43:56.553Z,21.08
2022-12-11T20:46:25.802Z,16.80
2022-12-11T20:48:54.014Z,20.55
2022-12-11T20:51:26.076Z,21.15
2022-12-11T20:53:58.862Z,21.17
2022-12-11T20:56:30.805Z,17.55
2022-12-11T20:58:59.156Z,17.80
2022-12-11T21:01:28.711Z,21.00
2022-12-11T21:03:55.948Z,19.60
2022-12-11T21:06:35.059Z,20.92
2022-12-11T21:09:06.235Z,16.85
2022-12-11T21:11:33.773Z,12.32
2022-12-11T21:14:00.605Z,14.90
2022-12-11T21:16:28.147Z,19.77
2022-12-11T21:18:56.498Z,22.02
2022-12-11T21:21:24.044Z,21.75
2022-12-11T21:23:50.831Z,18.02
2022-12-11T21:26:19.282Z,16.20
2022-12-11T21:28:46.111Z,20.10
2022-12-11T21:31:18.216Z,22.45
2022-12-11T21:33:46.314Z,18.27
2022-12-11T21:36:14.731Z,13.40
2022-12-11T21:38:43.662Z,15.80
2022-12-11T21:41:16.503Z,15.90
2022-12-11T21:44:14.627Z,22.70
2022-12-11T21:46:32.988Z,26.50
2022-12-11T21:48:59.890Z,15.63
2022-12-11T21:51:37.664Z,20.13
2022-12-11T21:54:07.519Z,18.88
2022-12-11T21:56:37.411Z,21.33
2022-12-11T21:59:05.013Z,16.00
2022-12-11T22:01:37.160Z,17.40
2022-12-11T22:04:05.158Z,17.05
2022-12-11T22:06:32.454Z,18.40
2022-12-11T22:08:59.246Z,17.13
2022-12-11T22:11:29.568Z,15.05
2022-12-11T22:13:57.604Z,20.48
2022-12-11T22:16:24.938Z,17.15
2022-12-11T22:18:51.726Z,18.83
2022-12-11T22:21:19.328Z,19.13
2022-12-11T22:23:46.596Z,20.13
2022-12-11T22:26:23.381Z,21.63
2022-12-11T22:28:50.906Z,18.63
2022-12-11T22:31:20.715Z,16.20
2022-12-11T22:33:50.045Z,16.08
2022-12-11T22:36:20.745Z,16.52
2022-12-11T22:38:47.706Z,14.80
2022-12-11T22:41:23.209Z,16.05
2022-12-11T22:43:50.542Z,11.52
2022-12-11T22:46:19.011Z,16.40
2022-12-11T22:48:45.778Z,17.67
2022-12-11T22:51:13.235Z,15.85
2022-12-11T22:53:40.075Z,15.18
2022-12-11T22:56:09.150Z,19.55
2022-12-11T22:58:36.409Z,17.05
2022-12-11T23:01:10.794Z,14.43
2022-12-11T23:03:37.784Z,17.50
2022-12-11T23:06:08.036Z,16.08
2022-12-11T23:08:35.201Z,17.77
2022-12-11T23:11:02.750Z,16.92
2022-12-11T23:13:29.507Z,12.27
2022-12-11T23:15:56.612Z,12.88
2022-12-11T23:18:23.629Z,15.93
2022-12-11T23:20:50.794Z,20.70
2022-12-11T23:23:17.518Z,14.40
2022-12-11T23:25:44.683Z,17.95
2022-12-11T23:28:11.430Z,14.55
2022-12-11T23:30:38.596Z,11.95
2022-12-11T23:33:06.631Z,16.48
2022-12-11T23:35:34.014Z,13.82
2022-12-11T23:38:00.829Z,17.15
2022-12-11T23:40:27.867Z,13.45
2022-12-11T23:42:54.619Z,10.38
2022-12-11T23:45:21.669Z,13.43
2022-12-11T23:47:48.544Z,10.90
2022-12-11T23:50:15.591Z,11.50
2022-12-11T23:52:42.346Z,12.07
2022-12-11T23:55:11.320Z,16.33
2022-12-11T23:57:38.330Z,14.68
